Neil Armstrong — WARL — position and weather

sailwx.info

Track history (hours):
 
Tides and Currents Weather Stations Pressure Air Temp Water Temp Dewpoint Dewpoint Depression Visibility Wind Speed Wind Dir Waves Ship Positions

Oceanographic research ship Neil Armstrong (United States)

Owner: Woods Hole Oceanographic Institution, Woods Hole, MA. More information available from US FCC via Universal Licensing System and Coast Guard Vessel Documentation Center.

Last reported at 2018-Dec-10 18:00 UTC. Time now 2018-Dec-10 20:23 UTC.
Position N 41°30' W 070°42'.

Length 72 m; draft 4.4 m.

Type: Ship. MMSI: 338767000.

Wind from 020 at 9 knots

Barometer 1017.7 mb
Air temperature 2.5 ° C
Dewpoint -3.9 ° C
Water temperature 4.8 ° C

Date/timePositionNaut miles runAvg speedWind from/ knotsBaromVisibWave heightAir tempDewpointWater temp
2018-Dec-10 18:00N 41°30' W 070°42'0 0.0 020 / 91017.7 2.5-3.9 4.8
2018-Dec-10 17:00N 41°30' W 070°42'0 0.0 010 / 121017.3 2.5-4.0 4.8
2018-Dec-10 15:00N 41°30' W 070°42'0 0.0 010 / 111018.5 0.8-5.2 4.8
2018-Dec-10 14:00N 41°30' W 070°42'0 0.0 350 / 41018.2 0.2-5.2 4.8
2018-Dec-10 13:00N 41°30' W 070°42'0 0.0 360 / 81017.9 -0.4-5.8 5.0
2018-Dec-10 12:00N 41°30' W 070°42'0 0.0 360 / 101017.4 -0.8-6.8 5.2
2018-Dec-10 11:00N 41°30' W 070°42'0 0.0 350 / 91017.6 -0.9-7.3 5.3
2018-Dec-10 10:00N 41°30' W 070°42'0 0.0 360 / 121017.3 -0.6-6.7 5.3
2018-Dec-10 09:00N 41°30' W 070°42'0 0.0 350 / 61017.6 -0.4-7.5 5.3
2018-Dec-10 08:00N 41°30' W 070°42'0 0.0 360 / 71018.3 -0.1-7.2 4.9
2018-Dec-10 07:00N 41°30' W 070°42'0 0.0 320 / 121018.8 0.3-7.7 5.0
2018-Dec-10 06:00N 41°30' W 070°42'0 0.0 300 / 81019.1 0.7-6.1 5.0
2018-Dec-10 05:00N 41°30' W 070°42'0 0.0 290 / 171019.8 1.7-4.6 5.0
2018-Dec-10 04:00N 41°30' W 070°42'0 0.0 280 / 151020.9 2.4-3.1 5.0
2018-Dec-10 03:00N 41°30' W 070°42'0 0.0 270 / 141021.8 1.7-4.2 5.0
2018-Dec-10 02:00N 41°30' W 070°42'0 0.0 260 / 141021.5 2.5-3.8 5.0
2018-Dec-10 01:00N 41°30' W 070°42'0 0.0 230 / 141022.3 2.0-5.2 5.0
2018-Dec-10 00:00N 41°30' W 070°42'0 0.0 240 / 121023.0 1.7-4.8 5.0
2018-Dec-09 23:00N 41°30' W 070°42'0 0.0 220 / 111023.8 1.5-4.9 5.0
2018-Dec-09 22:00N 41°30' W 070°42'0 0.0 240 / 121024.5 1.3-5.4 5.0
2018-Dec-09 21:00N 41°30' W 070°42'0 0.0 230 / 131025.3 1.2-5.6 5.1
2018-Dec-09 20:00N 41°30' W 070°42'0 0.0 260 / 141025.8 0.7-6.7 5.2
2018-Dec-09 19:00N 41°30' W 070°42'0 0.0 260 / 121026.5 0.3-7.5 5.0
2018-Dec-09 18:00N 41°30' W 070°42'0 0.0 250 / 141027.8 0.1-7.8 5.0
2018-Dec-09 17:00N 41°30' W 070°42'0 0.0 270 / 61028.1 -0.4-9.7 5.1
2018-Dec-09 16:00N 41°30' W 070°42'0 0.0 280 / 71029.3 -0.6-10.2 5.1
2018-Dec-09 15:00N 41°30' W 070°42'0 0.0 270 / 91030.7 -1.1-9.2 5.0
2018-Dec-09 14:00N 41°30' W 070°42'0 0.0 300 / 71031.2 -1.2-9.8 5.0
2018-Dec-09 13:00N 41°30' W 070°42'0 0.0 300 / 71031.2 -1.7-9.7 5.0
2018-Dec-09 12:00N 41°30' W 070°42'0 0.0 320 / 71031.4 -2.0-9.2 4.9
2018-Dec-09 11:00N 41°30' W 070°42'0 0.0 320 / 51031.7 -2.0-8.0 5.2
2018-Dec-09 10:00N 41°30' W 070°42'0 0.0 320 / 61031.4 -2.1-8.7 5.2
2018-Dec-09 09:00N 41°30' W 070°42'0 0.0 310 / 141031.2 -2.0-9.1 5.2
2018-Dec-09 08:00N 41°30' W 070°42'0 0.0 290 / 141032.1 -2.0-9.2 5.2
2018-Dec-09 07:00N 41°30' W 070°42'0 0.0 300 / 171032.2 -1.8-9.5 5.1
2018-Dec-09 06:00N 41°30' W 070°42'0 0.0 320 / 71032.0 -1.6-9.0 5.1
2018-Dec-09 05:00N 41°30' W 070°42'0 0.0 300 / 91032.3 -1.9-12.3 5.1
2018-Dec-09 04:00N 41°30' W 070°42'0 0.0 310 / 111032.1 -1.9-13.3 5.2
2018-Dec-09 03:00N 41°30' W 070°42'0 0.0 310 / 81031.9 -1.6-13.9 5.2
2018-Dec-09 02:00N 41°30' W 070°42'0 0.0 320 / 111032.1 -1.2-13.2 5.2
2018-Dec-09 01:00N 41°30' W 070°42'0 0.0 320 / 121032.2 -0.9-14.9 5.3
2018-Dec-09 00:00N 41°30' W 070°42'0 0.0 290 / 141031.4 -0.7-13.3 5.3
2018-Dec-08 23:00N 41°30' W 070°42'0 0.0 290 / 171030.7 -0.8-14.1 5.5
2018-Dec-08 22:00N 41°30' W 070°42'0 0.0 290 / 131030.2 -1.1-14.2 5.6
2018-Dec-08 21:00N 41°30' W 070°42'0 0.0 300 / 81029.3 -0.9-14.8 5.6
2018-Dec-08 20:00N 41°30' W 070°42'0 0.0 310 / 121028.9 -1.3-14.0 5.6
2018-Dec-08 19:00N 41°30' W 070°42'0 0.0 330 / 111028.8 -2.1-14.2 5.5
2018-Dec-08 18:00N 41°30' W 070°42'0 0.0 290 / 121029.1 -2.6-15.3 5.5
2018-Dec-08 17:00N 41°30' W 070°42'0 0.0 320 / 71029.3 -3.3-14.2 5.5
2018-Dec-08 16:00N 41°30' W 070°42'0 0.0 310 / 91030.3 -4.2-14.4 5.6
2018-Dec-08 15:00N 41°30' W 070°42'0 0.0 330 / 51030.7 -4.4-14.7 5.4
2018-Dec-08 14:00N 41°30' W 070°42'0 0.0 330 / 71030.3 -4.9-13.9 5.4
2018-Dec-08 13:00N 41°30' W 070°42'0 0.0 330 / 51029.9 -5.2-13.7 5.4
2018-Dec-08 12:00N 41°30' W 070°42'0 0.0 320 / 111029.4 -5.2-15.2 5.4
2018-Dec-08 11:00N 41°30' W 070°42'0 0.0 350 / 71029.3 -4.9-13.4 5.6
2018-Dec-08 10:00N 41°30' W 070°42'0 0.0 340 / 91029.1 -4.2-12.8 5.7
2018-Dec-08 09:00N 41°30' W 070°42'0 0.0 350 / 61029.2 -3.7-12.3 5.7
2018-Dec-08 08:00N 41°30' W 070°42'0 0.0 320 / 131028.8 -3.2-11.0 5.7
2018-Dec-08 07:00N 41°30' W 070°42'0 0.0 350 / 71028.5 -2.9-12.3 5.7
2018-Dec-08 06:00N 41°30' W 070°42'0 0.0 320 / 111028.3 -2.4-11.7 5.7
2018-Dec-08 05:00N 41°30' W 070°42'0 0.0 320 / 101028.4 -2.0-11.9 5.7
2018-Dec-08 04:00N 41°30' W 070°42'0 0.0 330 / 131028.1 -1.5-10.4 5.7
2018-Dec-08 03:00N 41°30' W 070°42'0 0.0 310 / 111028.1 -0.9-10.7 5.7
2018-Dec-08 02:00N 41°30' W 070°42'0 0.0 320 / 111028.0 -0.4-10.4 5.8
2018-Dec-08 01:00N 41°30' W 070°42'0 0.0 300 / 141027.6 0.2-9.9 5.8
2018-Dec-08 00:00N 41°30' W 070°42'0 0.0 290 / 121026.9 0.7-9.4 5.8
2018-Dec-07 23:00N 41°30' W 070°42'0 0.0 320 / 141026.2 1.3-10.9 6.0
2018-Dec-07 22:00N 41°30' W 070°42'0 0.0 320 / 101025.3 2.0-11.1 6.0
2018-Dec-07 21:00N 41°30' W 070°42'0 0.0 320 / 81024.4 2.6-10.7 6.0
2018-Dec-07 20:00N 41°30' W 070°42'0 0.0 290 / 141024.0 3.0-8.0 6.1
2018-Dec-07 19:00N 41°30' W 070°42'0 0.0 290 / 91023.5 2.9-7.3 6.1
2018-Dec-07 18:00N 41°30' W 070°42'0 0.0 290 / 131023.8 2.8-8.9 6.0
2018-Dec-07 17:00N 41°30' W 070°42'0 0.0 290 / 131023.8 2.7-7.6 6.0
2018-Dec-07 16:00N 41°30' W 070°42'0 0.0 290 / 111024.4 2.8-6.2 6.1
2018-Dec-07 15:00N 41°30' W 070°42'0 0.0 290 / 151024.5 2.8-5.4 5.9
2018-Dec-07 14:00N 41°30' W 070°42'0 0.0 290 / 201023.5 2.9-3.9 5.9
2018-Dec-07 13:00N 41°30' W 070°42'0 0.0 290 / 141023.1 2.9-3.1 5.9
2018-Dec-07 12:00N 41°30' W 070°42'0 0.0 290 / 141022.2 3.4-2.4 5.9
2018-Dec-07 11:00N 41°30' W 070°42'0 0.0 280 / 151021.4 3.6-2.0 5.9
2018-Dec-07 10:00N 41°30' W 070°42'0 0.0 290 / 161020.8 3.8-1.4 6.0
2018-Dec-07 09:00N 41°30' W 070°42'0 0.0 280 / 141020.3 3.8-1.5 6.0
2018-Dec-07 08:00N 41°30' W 070°42'0 0.0 280 / 101020.7 3.8 0.3 6.0
2018-Dec-07 07:00N 41°30' W 070°42'0 0.0 250 / 61020.7 3.3 0.9 5.9
2018-Dec-07 06:00N 41°30' W 070°42'0 0.0 280 / 131020.6 3.6-0.4 6.0
2018-Dec-07 05:00N 41°30' W 070°42'0 0.0 270 / 101020.5 4.6-3.1 6.0
2018-Dec-07 04:00N 41°30' W 070°42'0 0.0 290 / 91020.7 4.7-2.6 6.0
2018-Dec-07 03:00N 41°30' W 070°42'0 0.0 290 / 51021.0 4.5-3.8 6.0
2018-Dec-07 02:00N 41°30' W 070°42'0 0.0 270 / 61021.2 4.1-4.0 6.0
2018-Dec-07 01:00N 41°30' W 070°42'0 0.0 280 / 91021.0 3.8-5.9 6.1
2018-Dec-07 00:00N 41°30' W 070°42'0 0.0 290 / 111021.0 3.8-5.4 6.1
2018-Dec-06 23:00N 41°30' W 070°42'0 0.0 290 / 111020.5 4.0-5.5 6.1
2018-Dec-06 22:00N 41°30' W 070°42'0 0.0 280 / 101020.4 4.2-4.4 6.1
2018-Dec-06 21:00N 41°30' W 070°42'0 0.0 280 / 111019.8 4.5-4.6 6.1
2018-Dec-06 20:00N 41°30' W 070°42'0 0.0 270 / 91019.5 4.4-3.4 6.2
2018-Dec-06 19:00N 41°30' W 070°42'0 0.0 260 / 51018.9 4.3-5.6 6.1
2018-Dec-06 18:00N 41°30' W 070°42'0 0.0 280 / 101019.4 4.0-4.2 6.1
2018-Dec-06 17:00N 41°30' W 070°42'0 0.0 260 / 71019.6 3.4-5.4 6.0
2018-Dec-06 16:00N 41°30' W 070°42'0 0.0 290 / 71020.4 2.6-5.4 6.3
2018-Dec-06 15:00N 41°30' W 070°42'0 0.0 290 / 101021.3 1.7-5.5 6.1
2018-Dec-06 14:00N 41°30' W 070°42'0 0.0 270 / 61021.3 1.5-5.4 6.1
2018-Dec-06 13:00N 41°30' W 070°42'0 0.0 290 / 101021.0 1.6-5.2 6.0
2018-Dec-06 12:00N 41°30' W 070°42'0 0.0 300 / 91020.7 0.9-6.0 6.0
2018-Dec-06 11:00N 41°30' W 070°42'0 0.0 290 / 101020.0 1.1-4.9 6.0
2018-Dec-06 10:00N 41°30' W 070°42'0 0.0 290 / 91019.5 1.1-5.5 6.0
2018-Dec-06 09:00N 41°30' W 070°42'0 0.0 290 / 121019.4 0.9-6.8 6.2
2018-Dec-06 08:00N 41°30' W 070°42'0 0.0 290 / 111019.4 0.7-5.9 6.2
2018-Dec-06 07:00N 41°30' W 070°42'0 0.0 280 / 101019.3 0.3-8.1 6.3
2018-Dec-06 06:00N 41°30' W 070°42'0 0.0 330 / 51018.6 0.5-8.1 6.3
2018-Dec-06 05:00N 41°30' W 070°42'0 0.0 290 / 91018.3 0.6-7.7 6.3
2018-Dec-06 04:00N 41°30' W 070°42'0 0.0 050 / 21018.5 0.7-8.2 6.3
2018-Dec-06 03:00N 41°30' W 070°42'0 0.0 350 / 31018.5 0.5-8.3 6.3
2018-Dec-06 02:00N 41°30' W 070°42'0 0.0 120 / 11018.6 -0.0-7.4 6.3
2018-Dec-06 01:00N 41°30' W 070°42'0 0.0 330 / 51017.6 0.6-7.9 6.3
2018-Dec-06 00:00N 41°30' W 070°42'0 0.0 140 / 11017.8 -0.3-6.9 6.3
2018-Dec-05 23:00N 41°30' W 070°42'0 0.0 120 / 11017.9 -0.5-6.2 6.3
2018-Dec-05 22:00N 41°30' W 070°42'0 0.0 120 / 21018.1 0.2-6.0 6.3
2018-Dec-05 21:00N 41°30' W 070°42'0 0.0 120 / 21017.4 1.7-7.6 6.5
2018-Dec-05 20:00N 41°30' W 070°42'0 0.0 130 / 11017.6 2.1-8.1 6.5
2018-Dec-05 19:00N 41°30' W 070°42'0 0.0 280 / 31017.7 1.4-7.3 6.5
2018-Dec-05 18:00N 41°30' W 070°42'0 0.0 070 / 11018.1 1.3-5.8 6.5
2018-Dec-05 17:00N 41°30' W 070°42'0 0.0 290 / 41018.4 1.0-5.9 6.5
2018-Dec-05 16:00N 41°30' W 070°42'0 0.0 190 / 11019.7 0.1-6.3 6.6
2018-Dec-05 15:00N 41°30' W 070°42'0 0.0 030 / 21020.5 -0.6-6.0 6.3
2018-Dec-05 14:00N 41°30' W 070°42'0 0.0 350 / 41019.7 -1.8-6.9 6.3
2018-Dec-05 13:00N 41°30' W 070°42'0 0.0 210 / 21020.6 -1.9-7.1 6.3
2018-Dec-05 12:00N 41°30' W 070°42'0 0.0 240 / 11020.1 -2.6-7.8 6.3
2018-Dec-05 11:00N 41°30' W 070°42'0 0.0 110 / 21019.8 -2.4-8.8 6.3
2018-Dec-05 10:00N 41°30' W 070°42'0 0.0 050 / 21019.6 -2.2-9.0 6.3
2018-Dec-05 09:00N 41°30' W 070°42'0 0.0 050 / 31019.5 -2.1-9.0 6.6
2018-Dec-05 08:00N 41°30' W 070°42'0 0.0 030 / 21019.6 -1.9-9.6 6.6
2018-Dec-05 07:00N 41°30' W 070°42'0 0.0 140 / 21019.3 -1.8-9.6 6.6
2018-Dec-05 06:00N 41°30' W 070°42'0 0.0 340 / 21018.9 -1.6-9.4 6.7
2018-Dec-05 05:00N 41°30' W 070°42'0 0.0 070 / 11018.8 -1.5-10.1 6.7
2018-Dec-05 04:00N 41°30' W 070°42'0 0.0 020 / 21018.6 -1.2-10.5 6.7
2018-Dec-05 03:00N 41°30' W 070°42'0 0.0 350 / 21018.4 -0.8-9.9 6.8
2018-Dec-05 02:00N 41°30' W 070°42'0 0.0 310 / 51018.0 -0.4-9.8 6.8
2018-Dec-05 01:00N 41°30' W 070°42'0 0.0 270 / 21017.1 -0.0-9.0 6.8
2018-Dec-05 00:00N 41°30' W 070°42'0 0.0 280 / 81016.1 0.7-8.7 6.8
2018-Dec-04 23:00N 41°30' W 070°42'0 0.0 040 / 31015.5 1.6-7.8 6.8
2018-Dec-04 22:00N 41°30' W 070°42'0 0.0 350 / 71014.3 2.4-8.1 6.8
2018-Dec-04 21:00N 41°30' W 070°42'0 0.0 210 / 11013.1 3.6-7.1 6.9
2018-Dec-04 20:00N 41°30' W 070°42'0 0.0 290 / 61012.3 4.4-6.3 7.0
2018-Dec-04 19:00N 41°30' W 070°42'0 0.0 280 / 91011.6 4.3-6.2 7.1
2018-Dec-04 18:00N 41°30' W 070°42'0 0.0 260 / 21011.4 4.2-6.0 7.0
2018-Dec-04 17:00N 41°30' W 070°42'0 0.0 290 / 91011.2 4.0-5.9 7.0
2018-Dec-04 16:00N 41°30' W 070°42'0 0.0 290 / 61011.5 3.5-5.3 7.2
2018-Dec-04 15:00N 41°30' W 070°42'0 0.0 300 / 91011.8 2.9-4.6 6.9
2018-Dec-04 14:00N 41°30' W 070°42'0 0.0 340 / 71011.2 2.5-5.0 6.9
2018-Dec-04 13:00N 41°30' W 070°42'0 0.0 1010.8 2.1-4.7 6.8
2018-Dec-04 12:00N 41°30' W 070°42'0 0.0 340 / 61009.8 1.9-4.6 6.9
2018-Dec-04 11:00N 41°30' W 070°42'0 0.0 070 / 31008.9 2.4-4.4 7.0
2018-Dec-04 10:00N 41°30' W 070°42'0 0.0 030 / 31007.9 3.6-2.6 7.0
2018-Dec-04 09:00N 41°30' W 070°42'0 0.0 290 / 101006.8 4.8-1.3 7.0
2018-Dec-04 08:00N 41°30' W 070°42'0 0.0 260 / 71006.2 5.3-1.0 7.1
2018-Dec-04 07:00N 41°30' W 070°42'0 0.0 280 / 81005.5 6.3-0.8 7.1
2018-Dec-04 06:00N 41°30' W 070°42'0 0.0 290 / 151004.6 7.1 1.0 7.1
2018-Dec-04 05:00N 41°30' W 070°42'0 0.0 290 / 101004.6 7.9 1.8 7.2
2018-Dec-04 04:00N 41°30' W 070°42'0 0.0 290 / 111004.2 8.6 2.4 7.2
2018-Dec-04 03:00N 41°30' W 070°42'0 0.0 280 / 91004.0 8.5 3.2 7.2
2018-Dec-04 02:00N 41°30' W 070°42'0 0.0 280 / 91003.7 8.4 3.1 7.2
2018-Dec-04 01:00N 41°30' W 070°42'0 0.0 280 / 81003.8 8.5 3.8 7.2
2018-Dec-04 00:00N 41°30' W 070°42'0 0.0 280 / 71003.9 8.9 3.5 7.2
2018-Dec-03 23:00N 41°30' W 070°42'0 0.0 270 / 61003.3 9.5 3.8 7.2
2018-Dec-03 22:00N 41°30' W 070°42'0 0.0 290 / 121002.5 10.0 3.4 7.2
2018-Dec-03 21:00N 41°30' W 070°42'0 0.0 290 / 81001.8 9.6 5.7 7.3
2018-Dec-03 20:00N 41°30' W 070°42'0 0.0 220 / 41000.9 10.5 5.4 7.3
2018-Dec-03 19:00N 41°30' W 070°42'0 0.0 260 / 51000.7 10.7 5.8 7.4
2018-Dec-03 18:00N 41°30' W 070°42'0 0.0 190 / 61000.9 11.7 6.5 7.5
2018-Dec-03 17:00N 41°30' W 070°42'0 0.0 160 / 41001.0 11.4 8.8 7.4
2018-Dec-03 16:00N 41°30' W 070°42'0 0.0 250 / 41001.9 10.8 9.6 7.3
2018-Dec-03 14:00N 41°30' W 070°42'0 0.0 180 / 31002.3 11.0 9.9 7.2
2018-Dec-03 13:00N 41°30' W 070°42'0 0.0 270 / 71002.3 10.6 9.6 7.1
2018-Dec-03 12:00N 41°30' W 070°42'0 0.0 120 / 51001.9 10.8 9.8 7.1
2018-Dec-03 11:00N 41°30' W 070°42'0 0.0 140 / 11001.4 10.1 9.0 7.1
2018-Dec-03 10:00N 41°30' W 070°42'0 0.0 160 / 31001.6 11.0 9.9 7.1
2018-Dec-03 09:00N 41°30' W 070°42'0 0.0 190 / 51001.6 11.710.7 7.1
2018-Dec-03 08:00N 41°30' W 070°42'0 0.0 260 / 41002.1 11.210.2 7.0
2018-Dec-03 07:00N 41°30' W 070°42'0 0.0 230 / 41002.2 11.810.8 7.0
2018-Dec-03 06:00N 41°30' W 070°42'0 0.0 340 / 21002.4 10.9 9.9 7.1
2018-Dec-03 05:00N 41°30' W 070°42'0 0.0 140 / 31002.5 12.211.2 7.0
2018-Dec-03 04:00N 41°30' W 070°42'0 0.0 270 / 31003.2 11.110.1 7.0
2018-Dec-03 03:00N 41°30' W 070°42'0 0.0 110 / 21003.7 11.110.1 7.0
2018-Dec-03 02:00N 41°30' W 070°42'0 0.0 100 / 21004.3 11.310.3 7.0
2018-Dec-03 01:00N 41°30' W 070°42'0 0.0 310 / 21004.4 11.910.9 7.0
2018-Dec-03 00:00N 41°30' W 070°42'0 0.0 190 / 11004.5 11.910.8 6.9
2018-Dec-02 23:00N 41°30' W 070°42'0 0.0 020 / 31004.3 11.810.8 6.9
2018-Dec-02 22:00N 41°30' W 070°42'0 0.0 340 / 31004.8 12.111.0 6.9
2018-Dec-02 21:00N 41°30' W 070°42'0 0.0 100 / 41005.5 12.811.7 6.8
2018-Dec-02 20:00N 41°30' W 070°42'0 0.0 010 / 31006.0 12.711.6 6.8
2018-Dec-02 19:00N 41°30' W 070°42'0 0.0 330 / 21006.5 12.010.9 6.7
2018-Dec-02 18:00N 41°30' W 070°42'0 0.0 080 / 51008.2 11.610.6 6.7
2018-Dec-02 17:00N 41°30' W 070°42'0 0.0 120 / 51009.6 9.3 8.3 6.7
2018-Dec-02 16:00N 41°30' W 070°42'0 0.0 130 / 41012.2 8.2 7.2 6.6
2018-Dec-02 15:00N 41°30' W 070°42'0 0.0 120 / 61014.2 7.6 6.5 6.6
2018-Dec-02 14:00N 41°30' W 070°42'0 0.0 120 / 81014.6 7.5 6.4 6.6
2018-Dec-02 13:00N 41°30' W 070°42'0 0.0 110 / 111016.0 6.9 5.8 6.6
2018-Dec-02 12:00N 41°30' W 070°42'0 0.0 120 / 51017.8 6.6 5.4 6.6
2018-Dec-02 11:00N 41°30' W 070°42'0 0.0 120 / 31018.2 6.4 5.0 6.5
2018-Dec-02 10:00N 41°30' W 070°42'0 0.0 120 / 81018.9 6.4 4.6 6.5
2018-Dec-02 09:00N 41°30' W 070°42'0 0.0 120 / 61019.5 6.1 4.3 6.4
2018-Dec-02 08:00N 41°30' W 070°42'0 0.0 110 / 61020.3 5.8 2.8 6.4
2018-Dec-02 07:00N 41°30' W 070°42'0 0.0 120 / 81021.2 5.6 2.2 6.4
2018-Dec-02 06:00N 41°30' W 070°42'0 0.0 120 / 51021.7 5.5 2.3 6.5
2018-Dec-02 05:00N 41°30' W 070°42'0 0.0 020 / 11023.5 5.4 1.7 6.5
2018-Dec-02 04:00N 41°30' W 070°42'0 0.0 120 / 21024.1 5.2 1.2 6.6
2018-Dec-02 03:00N 41°30' W 070°42'0 0.0 110 / 21024.1 4.4 1.0 6.6
2018-Dec-02 02:00N 41°30' W 070°42'0 0.0 180 1024.5 4.5 1.0 6.5
2018-Dec-02 01:00N 41°30' W 070°42'0 0.0 180 / 11024.0 4.5 0.9 6.4
2018-Dec-02 00:00N 41°30' W 070°42'0 0.0 090 / 11024.3 4.6 0.8 6.4
2018-Dec-01 23:00N 41°30' W 070°42'0 0.0 160 / 11024.4 4.6 0.3 6.4
2018-Dec-01 22:00N 41°30' W 070°42'0 0.0 230 / 11024.3 4.8 0.1 6.3
2018-Dec-01 21:00N 41°30' W 070°42'0 0.0 010 / 11024.1 5.1 0.2 6.4
2018-Dec-01 20:00N 41°30' W 070°42'0 0.0 220 1023.2 5.4 0.2 6.4
2018-Dec-01 19:00N 41°30' W 070°42'0 0.0 260 / 31023.4 5.1-0.5 6.4
2018-Dec-01 18:00N 41°30' W 070°42'0 0.0 290 / 51023.5 4.4-0.3 6.5
2018-Dec-01 17:00N 41°30' W 070°42'0 0.0 320 / 31022.3 4.0-1.2 6.6
2018-Dec-01 16:00N 41°30' W 070°42'0 0.0 010 / 11023.2 3.3-1.2 6.6
2018-Dec-01 15:00N 41°30' W 070°42'0 0.0 070 / 11023.1 2.6-1.9 6.6
2018-Dec-01 14:00N 41°30' W 070°42'0 0.0 070 / 11023.5 2.5-1.7 6.5
2018-Dec-01 13:00N 41°30' W 070°42'0 0.0 020 / 21022.9 1.8-2.1 6.5
2018-Dec-01 12:00N 41°30' W 070°42'0 0.0 300 / 81022.2 1.7-2.1 6.4
2018-Dec-01 11:00N 41°30' W 070°42'0 0.0 280 / 71021.8 1.8-1.5 6.4
2018-Dec-01 10:00N 41°30' W 070°42'0 0.0 300 / 21020.8 1.8-1.6 6.4
2018-Dec-01 09:00N 41°30' W 070°42'0 0.0 070 / 21020.2 2.0-1.4 6.4
2018-Dec-01 08:00N 41°30' W 070°42'0 0.0 290 / 31020.3 2.3-1.2 6.4
2018-Dec-01 07:00N 41°30' W 070°42'0 0.0 290 / 41020.2 2.2-1.6 6.5
2018-Dec-01 06:00N 41°30' W 070°42'0 0.0 310 / 51019.5 2.5-1.2 6.5
2018-Dec-01 05:00N 41°30' W 070°42'0 0.0 300 / 31019.3 2.6-1.5 6.6
2018-Dec-01 04:00N 41°30' W 070°42'0 0.0 300 / 61019.4 2.9-1.1 6.7
2018-Dec-01 03:00N 41°30' W 070°42'0 0.0 190 / 11018.9 3.1-0.7 6.7
2018-Dec-01 02:00N 41°30' W 070°42'0 0.0 290 / 61018.9 3.3-0.1 6.7
2018-Dec-01 01:00N 41°30' W 070°42'0 0.0 280 / 41018.5 3.3-0.0 6.7
2018-Dec-01 00:00N 41°30' W 070°42'0 0.0 290 / 61018.2 3.4 0.1 6.6
2018-Nov-30 23:00N 41°30' W 070°42'0 0.0 120 / 21018.2 3.8 0.7 6.6
2018-Nov-30 22:00N 41°30' W 070°42'0 0.0 230 / 31018.2 4.0-0.8 6.7
2018-Nov-30 21:00N 41°30' W 070°42'0 0.0 260 / 21018.1 4.4-1.8 6.7
2018-Nov-30 20:00N 41°30' W 070°42'0 0.0 260 / 21017.5 4.6-1.8 6.6
2018-Nov-30 19:00N 41°30' W 070°42'0 0.0 330 / 21017.3 5.0-1.5 6.6
2018-Nov-30 18:00N 41°30' W 070°42'   210 / 11017.1 4.0-1.9 6.6
Track history (hours):
 
Tides and Currents Weather Stations Pressure Air Temp Water Temp Dewpoint Dewpoint Depression Visibility Wind Speed Wind Dir Waves Ship Positions

Oceanographic research ship Neil Armstrong (United States)

Owner: Woods Hole Oceanographic Institution, Woods Hole, MA. More information available from US FCC via Universal Licensing System and Coast Guard Vessel Documentation Center.

Last reported at 2018-Dec-10 18:00 UTC. Time now 2018-Dec-10 20:23 UTC.
Position N 41°30' W 070°42'.

Length 72 m; draft 4.4 m.

Type: Ship. MMSI: 338767000.

Wind from 020 at 9 knots

Barometer 1017.7 mb
Air temperature 2.5 ° C
Dewpoint -3.9 ° C
Water temperature 4.8 ° C

Date/timePositionNaut miles runAvg speedWind from/ knotsBaromVisibWave heightAir tempDewpointWater temp
2018-Dec-10 18:00N 41°30' W 070°42'0 0.0 020 / 91017.7 2.5-3.9 4.8
2018-Dec-10 17:00N 41°30' W 070°42'0 0.0 010 / 121017.3 2.5-4.0 4.8
2018-Dec-10 15:00N 41°30' W 070°42'0 0.0 010 / 111018.5 0.8-5.2 4.8
2018-Dec-10 14:00N 41°30' W 070°42'0 0.0 350 / 41018.2 0.2-5.2 4.8
2018-Dec-10 13:00N 41°30' W 070°42'0 0.0 360 / 81017.9 -0.4-5.8 5.0
2018-Dec-10 12:00N 41°30' W 070°42'0 0.0 360 / 101017.4 -0.8-6.8 5.2
2018-Dec-10 11:00N 41°30' W 070°42'0 0.0 350 / 91017.6 -0.9-7.3 5.3
2018-Dec-10 10:00N 41°30' W 070°42'0 0.0 360 / 121017.3 -0.6-6.7 5.3
2018-Dec-10 09:00N 41°30' W 070°42'0 0.0 350 / 61017.6 -0.4-7.5 5.3
2018-Dec-10 08:00N 41°30' W 070°42'0 0.0 360 / 71018.3 -0.1-7.2 4.9
2018-Dec-10 07:00N 41°30' W 070°42'0 0.0 320 / 121018.8 0.3-7.7 5.0
2018-Dec-10 06:00N 41°30' W 070°42'0 0.0 300 / 81019.1 0.7-6.1 5.0
2018-Dec-10 05:00N 41°30' W 070°42'0 0.0 290 / 171019.8 1.7-4.6 5.0
2018-Dec-10 04:00N 41°30' W 070°42'0 0.0 280 / 151020.9 2.4-3.1 5.0
2018-Dec-10 03:00N 41°30' W 070°42'0 0.0 270 / 141021.8 1.7-4.2 5.0
2018-Dec-10 02:00N 41°30' W 070°42'0 0.0 260 / 141021.5 2.5-3.8 5.0
2018-Dec-10 01:00N 41°30' W 070°42'0 0.0 230 / 141022.3 2.0-5.2 5.0
2018-Dec-10 00:00N 41°30' W 070°42'0 0.0 240 / 121023.0 1.7-4.8 5.0
2018-Dec-09 23:00N 41°30' W 070°42'0 0.0 220 / 111023.8 1.5-4.9 5.0
2018-Dec-09 22:00N 41°30' W 070°42'0 0.0 240 / 121024.5 1.3-5.4 5.0
2018-Dec-09 21:00N 41°30' W 070°42'0 0.0 230 / 131025.3 1.2-5.6 5.1
2018-Dec-09 20:00N 41°30' W 070°42'0 0.0 260 / 141025.8 0.7-6.7 5.2
2018-Dec-09 19:00N 41°30' W 070°42'0 0.0 260 / 121026.5 0.3-7.5 5.0
2018-Dec-09 18:00N 41°30' W 070°42'0 0.0 250 / 141027.8 0.1-7.8 5.0
2018-Dec-09 17:00N 41°30' W 070°42'0 0.0 270 / 61028.1 -0.4-9.7 5.1
2018-Dec-09 16:00N 41°30' W 070°42'0 0.0 280 / 71029.3 -0.6-10.2 5.1
2018-Dec-09 15:00N 41°30' W 070°42'0 0.0 270 / 91030.7 -1.1-9.2 5.0
2018-Dec-09 14:00N 41°30' W 070°42'0 0.0 300 / 71031.2 -1.2-9.8 5.0
2018-Dec-09 13:00N 41°30' W 070°42'0 0.0 300 / 71031.2 -1.7-9.7 5.0
2018-Dec-09 12:00N 41°30' W 070°42'0 0.0 320 / 71031.4 -2.0-9.2 4.9
2018-Dec-09 11:00N 41°30' W 070°42'0 0.0 320 / 51031.7 -2.0-8.0 5.2
2018-Dec-09 10:00N 41°30' W 070°42'0 0.0 320 / 61031.4 -2.1-8.7 5.2
2018-Dec-09 09:00N 41°30' W 070°42'0 0.0 310 / 141031.2 -2.0-9.1 5.2
2018-Dec-09 08:00N 41°30' W 070°42'0 0.0 290 / 141032.1 -2.0-9.2 5.2
2018-Dec-09 07:00N 41°30' W 070°42'0 0.0 300 / 171032.2 -1.8-9.5 5.1
2018-Dec-09 06:00N 41°30' W 070°42'0 0.0 320 / 71032.0 -1.6-9.0 5.1
2018-Dec-09 05:00N 41°30' W 070°42'0 0.0 300 / 91032.3 -1.9-12.3 5.1
2018-Dec-09 04:00N 41°30' W 070°42'0 0.0 310 / 111032.1 -1.9-13.3 5.2
2018-Dec-09 03:00N 41°30' W 070°42'0 0.0 310 / 81031.9 -1.6-13.9 5.2
2018-Dec-09 02:00N 41°30' W 070°42'0 0.0 320 / 111032.1 -1.2-13.2 5.2
2018-Dec-09 01:00N 41°30' W 070°42'0 0.0 320 / 121032.2 -0.9-14.9 5.3
2018-Dec-09 00:00N 41°30' W 070°42'0 0.0 290 / 141031.4 -0.7-13.3 5.3
2018-Dec-08 23:00N 41°30' W 070°42'0 0.0 290 / 171030.7 -0.8-14.1 5.5
2018-Dec-08 22:00N 41°30' W 070°42'0 0.0 290 / 131030.2 -1.1-14.2 5.6
2018-Dec-08 21:00N 41°30' W 070°42'0 0.0 300 / 81029.3 -0.9-14.8 5.6
2018-Dec-08 20:00N 41°30' W 070°42'0 0.0 310 / 121028.9 -1.3-14.0 5.6
2018-Dec-08 19:00N 41°30' W 070°42'0 0.0 330 / 111028.8 -2.1-14.2 5.5
2018-Dec-08 18:00N 41°30' W 070°42'0 0.0 290 / 121029.1 -2.6-15.3 5.5
2018-Dec-08 17:00N 41°30' W 070°42'0 0.0 320 / 71029.3 -3.3-14.2 5.5
2018-Dec-08 16:00N 41°30' W 070°42'0 0.0 310 / 91030.3 -4.2-14.4 5.6
2018-Dec-08 15:00N 41°30' W 070°42'0 0.0 330 / 51030.7 -4.4-14.7 5.4
2018-Dec-08 14:00N 41°30' W 070°42'0 0.0 330 / 71030.3 -4.9-13.9 5.4
2018-Dec-08 13:00N 41°30' W 070°42'0 0.0 330 / 51029.9 -5.2-13.7 5.4
2018-Dec-08 12:00N 41°30' W 070°42'0 0.0 320 / 111029.4 -5.2-15.2 5.4
2018-Dec-08 11:00N 41°30' W 070°42'0 0.0 350 / 71029.3 -4.9-13.4 5.6
2018-Dec-08 10:00N 41°30' W 070°42'0 0.0 340 / 91029.1 -4.2-12.8 5.7
2018-Dec-08 09:00N 41°30' W 070°42'0 0.0 350 / 61029.2 -3.7-12.3 5.7
2018-Dec-08 08:00N 41°30' W 070°42'0 0.0 320 / 131028.8 -3.2-11.0 5.7
2018-Dec-08 07:00N 41°30' W 070°42'0 0.0 350 / 71028.5 -2.9-12.3 5.7
2018-Dec-08 06:00N 41°30' W 070°42'0 0.0 320 / 111028.3 -2.4-11.7 5.7
2018-Dec-08 05:00N 41°30' W 070°42'0 0.0 320 / 101028.4 -2.0-11.9 5.7
2018-Dec-08 04:00N 41°30' W 070°42'0 0.0 330 / 131028.1 -1.5-10.4 5.7
2018-Dec-08 03:00N 41°30' W 070°42'0 0.0 310 / 111028.1 -0.9-10.7 5.7
2018-Dec-08 02:00N 41°30' W 070°42'0 0.0 320 / 111028.0 -0.4-10.4 5.8
2018-Dec-08 01:00N 41°30' W 070°42'0 0.0 300 / 141027.6 0.2-9.9 5.8
2018-Dec-08 00:00N 41°30' W 070°42'0 0.0 290 / 121026.9 0.7-9.4 5.8
2018-Dec-07 23:00N 41°30' W 070°42'0 0.0 320 / 141026.2 1.3-10.9 6.0
2018-Dec-07 22:00N 41°30' W 070°42'0 0.0 320 / 101025.3 2.0-11.1 6.0
2018-Dec-07 21:00N 41°30' W 070°42'0 0.0 320 / 81024.4 2.6-10.7 6.0
2018-Dec-07 20:00N 41°30' W 070°42'0 0.0 290 / 141024.0 3.0-8.0 6.1
2018-Dec-07 19:00N 41°30' W 070°42'0 0.0 290 / 91023.5 2.9-7.3 6.1
2018-Dec-07 18:00N 41°30' W 070°42'0 0.0 290 / 131023.8 2.8-8.9 6.0
2018-Dec-07 17:00N 41°30' W 070°42'0 0.0 290 / 131023.8 2.7-7.6 6.0
2018-Dec-07 16:00N 41°30' W 070°42'0 0.0 290 / 111024.4 2.8-6.2 6.1
2018-Dec-07 15:00N 41°30' W 070°42'0 0.0 290 / 151024.5 2.8-5.4 5.9
2018-Dec-07 14:00N 41°30' W 070°42'0 0.0 290 / 201023.5 2.9-3.9 5.9
2018-Dec-07 13:00N 41°30' W 070°42'0 0.0 290 / 141023.1 2.9-3.1 5.9
2018-Dec-07 12:00N 41°30' W 070°42'0 0.0 290 / 141022.2 3.4-2.4 5.9
2018-Dec-07 11:00N 41°30' W 070°42'0 0.0 280 / 151021.4 3.6-2.0 5.9
2018-Dec-07 10:00N 41°30' W 070°42'0 0.0 290 / 161020.8 3.8-1.4 6.0
2018-Dec-07 09:00N 41°30' W 070°42'0 0.0 280 / 141020.3 3.8-1.5 6.0
2018-Dec-07 08:00N 41°30' W 070°42'0 0.0 280 / 101020.7 3.8 0.3 6.0
2018-Dec-07 07:00N 41°30' W 070°42'0 0.0 250 / 61020.7 3.3 0.9 5.9
2018-Dec-07 06:00N 41°30' W 070°42'0 0.0 280 / 131020.6 3.6-0.4 6.0
2018-Dec-07 05:00N 41°30' W 070°42'0 0.0 270 / 101020.5 4.6-3.1 6.0
2018-Dec-07 04:00N 41°30' W 070°42'0 0.0 290 / 91020.7 4.7-2.6 6.0
2018-Dec-07 03:00N 41°30' W 070°42'0 0.0 290 / 51021.0 4.5-3.8 6.0
2018-Dec-07 02:00N 41°30' W 070°42'0 0.0 270 / 61021.2 4.1-4.0 6.0
2018-Dec-07 01:00N 41°30' W 070°42'0 0.0 280 / 91021.0 3.8-5.9 6.1
2018-Dec-07 00:00N 41°30' W 070°42'0 0.0 290 / 111021.0 3.8-5.4 6.1
2018-Dec-06 23:00N 41°30' W 070°42'0 0.0 290 / 111020.5 4.0-5.5 6.1
2018-Dec-06 22:00N 41°30' W 070°42'0 0.0 280 / 101020.4 4.2-4.4 6.1
2018-Dec-06 21:00N 41°30' W 070°42'0 0.0 280 / 111019.8 4.5-4.6 6.1
2018-Dec-06 20:00N 41°30' W 070°42'0 0.0 270 / 91019.5 4.4-3.4 6.2
2018-Dec-06 19:00N 41°30' W 070°42'0 0.0 260 / 51018.9 4.3-5.6 6.1
2018-Dec-06 18:00N 41°30' W 070°42'0 0.0 280 / 101019.4 4.0-4.2 6.1
2018-Dec-06 17:00N 41°30' W 070°42'0 0.0 260 / 71019.6 3.4-5.4 6.0
2018-Dec-06 16:00N 41°30' W 070°42'0 0.0 290 / 71020.4 2.6-5.4 6.3
2018-Dec-06 15:00N 41°30' W 070°42'0 0.0 290 / 101021.3 1.7-5.5 6.1
2018-Dec-06 14:00N 41°30' W 070°42'0 0.0 270 / 61021.3 1.5-5.4 6.1
2018-Dec-06 13:00N 41°30' W 070°42'0 0.0 290 / 101021.0 1.6-5.2 6.0
2018-Dec-06 12:00N 41°30' W 070°42'0 0.0 300 / 91020.7 0.9-6.0 6.0
2018-Dec-06 11:00N 41°30' W 070°42'0 0.0 290 / 101020.0 1.1-4.9 6.0
2018-Dec-06 10:00N 41°30' W 070°42'0 0.0 290 / 91019.5 1.1-5.5 6.0
2018-Dec-06 09:00N 41°30' W 070°42'0 0.0 290 / 121019.4 0.9-6.8 6.2
2018-Dec-06 08:00N 41°30' W 070°42'0 0.0 290 / 111019.4 0.7-5.9 6.2
2018-Dec-06 07:00N 41°30' W 070°42'0 0.0 280 / 101019.3 0.3-8.1 6.3
2018-Dec-06 06:00N 41°30' W 070°42'0 0.0 330 / 51018.6 0.5-8.1 6.3
2018-Dec-06 05:00N 41°30' W 070°42'0 0.0 290 / 91018.3 0.6-7.7 6.3
2018-Dec-06 04:00N 41°30' W 070°42'0 0.0 050 / 21018.5 0.7-8.2 6.3
2018-Dec-06 03:00N 41°30' W 070°42'0 0.0 350 / 31018.5 0.5-8.3 6.3
2018-Dec-06 02:00N 41°30' W 070°42'0 0.0 120 / 11018.6 -0.0-7.4 6.3
2018-Dec-06 01:00N 41°30' W 070°42'0 0.0 330 / 51017.6 0.6-7.9 6.3
2018-Dec-06 00:00N 41°30' W 070°42'0 0.0 140 / 11017.8 -0.3-6.9 6.3
2018-Dec-05 23:00N 41°30' W 070°42'0 0.0 120 / 11017.9 -0.5-6.2 6.3
2018-Dec-05 22:00N 41°30' W 070°42'0 0.0 120 / 21018.1 0.2-6.0 6.3
2018-Dec-05 21:00N 41°30' W 070°42'0 0.0 120 / 21017.4 1.7-7.6 6.5
2018-Dec-05 20:00N 41°30' W 070°42'0 0.0 130 / 11017.6 2.1-8.1 6.5
2018-Dec-05 19:00N 41°30' W 070°42'0 0.0 280 / 31017.7 1.4-7.3 6.5
2018-Dec-05 18:00N 41°30' W 070°42'0 0.0 070 / 11018.1 1.3-5.8 6.5
2018-Dec-05 17:00N 41°30' W 070°42'0 0.0 290 / 41018.4 1.0-5.9 6.5
2018-Dec-05 16:00N 41°30' W 070°42'0 0.0 190 / 11019.7 0.1-6.3 6.6
2018-Dec-05 15:00N 41°30' W 070°42'0 0.0 030 / 21020.5 -0.6-6.0 6.3
2018-Dec-05 14:00N 41°30' W 070°42'0 0.0 350 / 41019.7 -1.8-6.9 6.3
2018-Dec-05 13:00N 41°30' W 070°42'0 0.0 210 / 21020.6 -1.9-7.1 6.3
2018-Dec-05 12:00N 41°30' W 070°42'0 0.0 240 / 11020.1 -2.6-7.8 6.3
2018-Dec-05 11:00N 41°30' W 070°42'0 0.0 110 / 21019.8 -2.4-8.8 6.3
2018-Dec-05 10:00N 41°30' W 070°42'0 0.0 050 / 21019.6 -2.2-9.0 6.3
2018-Dec-05 09:00N 41°30' W 070°42'0 0.0 050 / 31019.5 -2.1-9.0 6.6
2018-Dec-05 08:00N 41°30' W 070°42'0 0.0 030 / 21019.6 -1.9-9.6 6.6
2018-Dec-05 07:00N 41°30' W 070°42'0 0.0 140 / 21019.3 -1.8-9.6 6.6
2018-Dec-05 06:00N 41°30' W 070°42'0 0.0 340 / 21018.9 -1.6-9.4 6.7
2018-Dec-05 05:00N 41°30' W 070°42'0 0.0 070 / 11018.8 -1.5-10.1 6.7
2018-Dec-05 04:00N 41°30' W 070°42'0 0.0 020 / 21018.6 -1.2-10.5 6.7
2018-Dec-05 03:00N 41°30' W 070°42'0 0.0 350 / 21018.4 -0.8-9.9 6.8
2018-Dec-05 02:00N 41°30' W 070°42'0 0.0 310 / 51018.0 -0.4-9.8 6.8
2018-Dec-05 01:00N 41°30' W 070°42'0 0.0 270 / 21017.1 -0.0-9.0 6.8
2018-Dec-05 00:00N 41°30' W 070°42'0 0.0 280 / 81016.1 0.7-8.7 6.8
2018-Dec-04 23:00N 41°30' W 070°42'0 0.0 040 / 31015.5 1.6-7.8 6.8
2018-Dec-04 22:00N 41°30' W 070°42'0 0.0 350 / 71014.3 2.4-8.1 6.8
2018-Dec-04 21:00N 41°30' W 070°42'0 0.0 210 / 11013.1 3.6-7.1 6.9
2018-Dec-04 20:00N 41°30' W 070°42'0 0.0 290 / 61012.3 4.4-6.3 7.0
2018-Dec-04 19:00N 41°30' W 070°42'0 0.0 280 / 91011.6 4.3-6.2 7.1
2018-Dec-04 18:00N 41°30' W 070°42'0 0.0 260 / 21011.4 4.2-6.0 7.0
2018-Dec-04 17:00N 41°30' W 070°42'0 0.0 290 / 91011.2 4.0-5.9 7.0
2018-Dec-04 16:00N 41°30' W 070°42'0 0.0 290 / 61011.5 3.5-5.3 7.2
2018-Dec-04 15:00N 41°30' W 070°42'0 0.0 300 / 91011.8 2.9-4.6 6.9
2018-Dec-04 14:00N 41°30' W 070°42'0 0.0 340 / 71011.2 2.5-5.0 6.9
2018-Dec-04 13:00N 41°30' W 070°42'0 0.0 1010.8 2.1-4.7 6.8
2018-Dec-04 12:00N 41°30' W 070°42'0 0.0 340 / 61009.8 1.9-4.6 6.9
2018-Dec-04 11:00N 41°30' W 070°42'0 0.0 070 / 31008.9 2.4-4.4 7.0
2018-Dec-04 10:00N 41°30' W 070°42'0 0.0 030 / 31007.9 3.6-2.6 7.0
2018-Dec-04 09:00N 41°30' W 070°42'0 0.0 290 / 101006.8 4.8-1.3 7.0
2018-Dec-04 08:00N 41°30' W 070°42'0 0.0 260 / 71006.2 5.3-1.0 7.1
2018-Dec-04 07:00N 41°30' W 070°42'0 0.0 280 / 81005.5 6.3-0.8 7.1
2018-Dec-04 06:00N 41°30' W 070°42'0 0.0 290 / 151004.6 7.1 1.0 7.1
2018-Dec-04 05:00N 41°30' W 070°42'0 0.0 290 / 101004.6 7.9 1.8 7.2
2018-Dec-04 04:00N 41°30' W 070°42'0 0.0 290 / 111004.2 8.6 2.4 7.2
2018-Dec-04 03:00N 41°30' W 070°42'0 0.0 280 / 91004.0 8.5 3.2 7.2
2018-Dec-04 02:00N 41°30' W 070°42'0 0.0 280 / 91003.7 8.4 3.1 7.2
2018-Dec-04 01:00N 41°30' W 070°42'0 0.0 280 / 81003.8 8.5 3.8 7.2
2018-Dec-04 00:00N 41°30' W 070°42'0 0.0 280 / 71003.9 8.9 3.5 7.2
2018-Dec-03 23:00N 41°30' W 070°42'0 0.0 270 / 61003.3 9.5 3.8 7.2
2018-Dec-03 22:00N 41°30' W 070°42'0 0.0 290 / 121002.5 10.0 3.4 7.2
2018-Dec-03 21:00N 41°30' W 070°42'0 0.0 290 / 81001.8 9.6 5.7 7.3
2018-Dec-03 20:00N 41°30' W 070°42'0 0.0 220 / 41000.9 10.5 5.4 7.3
2018-Dec-03 19:00N 41°30' W 070°42'0 0.0 260 / 51000.7 10.7 5.8 7.4
2018-Dec-03 18:00N 41°30' W 070°42'0 0.0 190 / 61000.9 11.7 6.5 7.5
2018-Dec-03 17:00N 41°30' W 070°42'0 0.0 160 / 41001.0 11.4 8.8 7.4
2018-Dec-03 16:00N 41°30' W 070°42'0 0.0 250 / 41001.9 10.8 9.6 7.3
2018-Dec-03 14:00N 41°30' W 070°42'0 0.0 180 / 31002.3 11.0 9.9 7.2
2018-Dec-03 13:00N 41°30' W 070°42'0 0.0 270 / 71002.3 10.6 9.6 7.1
2018-Dec-03 12:00N 41°30' W 070°42'0 0.0 120 / 51001.9 10.8 9.8 7.1
2018-Dec-03 11:00N 41°30' W 070°42'0 0.0 140 / 11001.4 10.1 9.0 7.1
2018-Dec-03 10:00N 41°30' W 070°42'0 0.0 160 / 31001.6 11.0 9.9 7.1
2018-Dec-03 09:00N 41°30' W 070°42'0 0.0 190 / 51001.6 11.710.7 7.1
2018-Dec-03 08:00N 41°30' W 070°42'0 0.0 260 / 41002.1 11.210.2 7.0
2018-Dec-03 07:00N 41°30' W 070°42'0 0.0 230 / 41002.2 11.810.8 7.0
2018-Dec-03 06:00N 41°30' W 070°42'0 0.0 340 / 21002.4 10.9 9.9 7.1
2018-Dec-03 05:00N 41°30' W 070°42'0 0.0 140 / 31002.5 12.211.2 7.0
2018-Dec-03 04:00N 41°30' W 070°42'0 0.0 270 / 31003.2 11.110.1 7.0
2018-Dec-03 03:00N 41°30' W 070°42'0 0.0 110 / 21003.7 11.110.1 7.0
2018-Dec-03 02:00N 41°30' W 070°42'0 0.0 100 / 21004.3 11.310.3 7.0
2018-Dec-03 01:00N 41°30' W 070°42'0 0.0 310 / 21004.4 11.910.9 7.0
2018-Dec-03 00:00N 41°30' W 070°42'0 0.0 190 / 11004.5 11.910.8 6.9
2018-Dec-02 23:00N 41°30' W 070°42'0 0.0 020 / 31004.3 11.810.8 6.9
2018-Dec-02 22:00N 41°30' W 070°42'0 0.0 340 / 31004.8 12.111.0 6.9
2018-Dec-02 21:00N 41°30' W 070°42'0 0.0 100 / 41005.5 12.811.7 6.8
2018-Dec-02 20:00N 41°30' W 070°42'0 0.0 010 / 31006.0 12.711.6 6.8
2018-Dec-02 19:00N 41°30' W 070°42'0 0.0 330 / 21006.5 12.010.9 6.7
2018-Dec-02 18:00N 41°30' W 070°42'0 0.0 080 / 51008.2 11.610.6 6.7
2018-Dec-02 17:00N 41°30' W 070°42'0 0.0 120 / 51009.6 9.3 8.3 6.7
2018-Dec-02 16:00N 41°30' W 070°42'0 0.0 130 / 41012.2 8.2 7.2 6.6
2018-Dec-02 15:00N 41°30' W 070°42'0 0.0 120 / 61014.2 7.6 6.5 6.6
2018-Dec-02 14:00N 41°30' W 070°42'0 0.0 120 / 81014.6 7.5 6.4 6.6
2018-Dec-02 13:00N 41°30' W 070°42'0 0.0 110 / 111016.0 6.9 5.8 6.6
2018-Dec-02 12:00N 41°30' W 070°42'0 0.0 120 / 51017.8 6.6 5.4 6.6
2018-Dec-02 11:00N 41°30' W 070°42'0 0.0 120 / 31018.2 6.4 5.0 6.5
2018-Dec-02 10:00N 41°30' W 070°42'0 0.0 120 / 81018.9 6.4 4.6 6.5
2018-Dec-02 09:00N 41°30' W 070°42'0 0.0 120 / 61019.5 6.1 4.3 6.4
2018-Dec-02 08:00N 41°30' W 070°42'0 0.0 110 / 61020.3 5.8 2.8 6.4
2018-Dec-02 07:00N 41°30' W 070°42'0 0.0 120 / 81021.2 5.6 2.2 6.4
2018-Dec-02 06:00N 41°30' W 070°42'0 0.0 120 / 51021.7 5.5 2.3 6.5
2018-Dec-02 05:00N 41°30' W 070°42'0 0.0 020 / 11023.5 5.4 1.7 6.5
2018-Dec-02 04:00N 41°30' W 070°42'0 0.0 120 / 21024.1 5.2 1.2 6.6
2018-Dec-02 03:00N 41°30' W 070°42'0 0.0 110 / 21024.1 4.4 1.0 6.6
2018-Dec-02 02:00N 41°30' W 070°42'0 0.0 180 1024.5 4.5 1.0 6.5
2018-Dec-02 01:00N 41°30' W 070°42'0 0.0 180 / 11024.0 4.5 0.9 6.4
2018-Dec-02 00:00N 41°30' W 070°42'0 0.0 090 / 11024.3 4.6 0.8 6.4
2018-Dec-01 23:00N 41°30' W 070°42'0 0.0 160 / 11024.4 4.6 0.3 6.4
2018-Dec-01 22:00N 41°30' W 070°42'0 0.0 230 / 11024.3 4.8 0.1 6.3
2018-Dec-01 21:00N 41°30' W 070°42'0 0.0 010 / 11024.1 5.1 0.2 6.4
2018-Dec-01 20:00N 41°30' W 070°42'0 0.0 220 1023.2 5.4 0.2 6.4
2018-Dec-01 19:00N 41°30' W 070°42'0 0.0 260 / 31023.4 5.1-0.5 6.4
2018-Dec-01 18:00N 41°30' W 070°42'0 0.0 290 / 51023.5 4.4-0.3 6.5
2018-Dec-01 17:00N 41°30' W 070°42'0 0.0 320 / 31022.3 4.0-1.2 6.6
2018-Dec-01 16:00N 41°30' W 070°42'0 0.0 010 / 11023.2 3.3-1.2 6.6
2018-Dec-01 15:00N 41°30' W 070°42'0 0.0 070 / 11023.1 2.6-1.9 6.6
2018-Dec-01 14:00N 41°30' W 070°42'0 0.0 070 / 11023.5 2.5-1.7 6.5
2018-Dec-01 13:00N 41°30' W 070°42'0 0.0 020 / 21022.9 1.8-2.1 6.5
2018-Dec-01 12:00N 41°30' W 070°42'0 0.0 300 / 81022.2 1.7-2.1 6.4
2018-Dec-01 11:00N 41°30' W 070°42'0 0.0 280 / 71021.8 1.8-1.5 6.4
2018-Dec-01 10:00N 41°30' W 070°42'0 0.0 300 / 21020.8 1.8-1.6 6.4
2018-Dec-01 09:00N 41°30' W 070°42'0 0.0 070 / 21020.2 2.0-1.4 6.4
2018-Dec-01 08:00N 41°30' W 070°42'0 0.0 290 / 31020.3 2.3-1.2 6.4
2018-Dec-01 07:00N 41°30' W 070°42'0 0.0 290 / 41020.2 2.2-1.6 6.5
2018-Dec-01 06:00N 41°30' W 070°42'0 0.0 310 / 51019.5 2.5-1.2 6.5
2018-Dec-01 05:00N 41°30' W 070°42'0 0.0 300 / 31019.3 2.6-1.5 6.6
2018-Dec-01 04:00N 41°30' W 070°42'0 0.0 300 / 61019.4 2.9-1.1 6.7
2018-Dec-01 03:00N 41°30' W 070°42'0 0.0 190 / 11018.9 3.1-0.7 6.7
2018-Dec-01 02:00N 41°30' W 070°42'0 0.0 290 / 61018.9 3.3-0.1 6.7
2018-Dec-01 01:00N 41°30' W 070°42'0 0.0 280 / 41018.5 3.3-0.0 6.7
2018-Dec-01 00:00N 41°30' W 070°42'0 0.0 290 / 61018.2 3.4 0.1 6.6
2018-Nov-30 23:00N 41°30' W 070°42'0 0.0 120 / 21018.2 3.8 0.7 6.6
2018-Nov-30 22:00N 41°30' W 070°42'0 0.0 230 / 31018.2 4.0-0.8 6.7
2018-Nov-30 21:00N 41°30' W 070°42'0 0.0 260 / 21018.1 4.4-1.8 6.7
2018-Nov-30 20:00N 41°30' W 070°42'0 0.0 260 / 21017.5 4.6-1.8 6.6
2018-Nov-30 19:00N 41°30' W 070°42'0 0.0 330 / 21017.3 5.0-1.5 6.6
2018-Nov-30 18:00N 41°30' W 070°42'   210 / 11017.1 4.0-1.9 6.6

Dump ship's entire track history